Time;durP1;ratioP1;P1;durP2;ratioP2;P2;SDS_P1;SDS_P2;PMS_P1;PMS_P2;Temp;Humidity;BMP_temperature;BMP_pressure;BME280_temperature;BME280_humidity;BME280_pressure;Samples;Min_cycle;Max_cycle;Signal;HPM_P1;HPM_P2
2023/01/15 00:00:38;;;;;;;;;;;;;;;-3.12;79.88;100435.53;4966846;28;19930;-61
2023/01/15 00:03:04;;;;;;;;;;;;;;;-3.08;80.12;100438.66;4967536;28;19965;-63
2023/01/15 00:05:31;;;;;;;;;;;;;;;-3.06;79.96;100452.72;4977720;28;19941;-63
2023/01/15 00:07:56;;;;;;;;;;;;;;;-3.03;79.99;100447.06;4961412;28;19930;-62
2023/01/15 00:10:22;;;;;;;;;;;;;;;-2.99;79.91;100448.38;4966623;28;19934;-63
2023/01/15 00:12:49;;;;;;;;;;;;;;;-2.99;79.49;100449.19;4966751;28;19937;-62
2023/01/15 00:15:15;;;;;;;;;;;;;;;-3.02;79.45;100457.56;4967002;28;19930;-61
2023/01/15 00:17:40;;;;;;;;;;;;;;;-3.03;79.79;100444.38;4964007;28;19985;-62
2023/01/15 00:20:07;;;;;;;;;;;;;;;-2.99;79.80;100449.19;4967912;28;20324;-62
2023/01/15 00:22:34;;;;;;;;;;;;;;;-2.91;79.56;100444.84;4964201;28;20349;-62
2023/01/15 00:27:44;;;;;;;;;;;;;;;-2.91;79.14;100450.19;4965706;28;19930;-66
2023/01/15 00:30:11;;;;;;;;;;;;;;;-2.94;79.17;100466.59;4979042;28;19937;-66
2023/01/15 00:32:37;;;;;;;;;;;;;;;-2.95;79.21;100449.69;4968839;28;20421;-66
2023/01/15 00:35:03;;;;;;;;;;;;;;;-2.92;79.39;100449.34;4968522;28;19934;-66
2023/01/15 00:37:29;;;;;;;;;;;;;;;-2.91;79.16;100440.31;4964731;28;19930;-67
2023/01/15 00:39:56;;;;;;;;;;;;;;;-2.88;79.44;100431.97;4961284;28;19981;-66
2023/01/15 00:42:22;;;;;;;;;;;;;;;-2.84;79.46;100424.41;4965626;28;19929;-66
2023/01/15 00:44:48;;;;;;;;;;;;;;;-2.80;79.17;100424.91;4965047;28;19993;-66
2023/01/15 00:47:14;;;;;;;;;;;;;;;-2.88;78.86;100420.41;4965845;28;19930;-66
2023/01/15 00:49:39;;;;;;;;;;;;;;;-2.92;79.02;100413.75;4978499;28;19934;-66
2023/01/15 00:52:06;;;;;;;;;;;;;;;-2.93;79.22;100423.59;4964702;28;19938;-66
2023/01/15 00:54:32;;;;;;;;;;;;;;;-2.94;79.44;100427.28;4964552;28;20364;-66
2023/01/15 00:56:59;;;;;;;;;;;;;;;-2.96;79.34;100409.75;4965130;28;19930;-66
2023/01/15 00:59:25;;;;;;;;;;;;;;;-3.01;79.42;100397.69;4963532;28;19930;-66
2023/01/15 01:01:51;;;;;;;;;;;;;;;-2.96;79.39;100401.72;4965328;28;20382;-67
2023/01/15 01:04:17;;;;;;;;;;;;;;;-2.99;79.65;100401.03;4968201;28;19961;-66
2023/01/15 01:06:43;;;;;;;;;;;;;;;-3.01;79.58;100407.56;4982164;28;20405;-66
2023/01/15 01:09:11;;;;;;;;;;;;;;;-2.98;79.51;100399.19;4963488;28;20037;-66
2023/01/15 01:11:37;;;;;;;;;;;;;;;-2.98;79.70;100412.56;4965625;28;19930;-66
2023/01/15 01:14:04;;;;;;;;;;;;;;;-3.00;79.59;100399.34;4979303;28;19930;-66
2023/01/15 01:16:34;;;;;;;;;;;;;;;-3.02;79.63;100408.56;4967419;28;19930;-67
2023/01/15 01:19:02;;;;;;;;;;;;;;;-3.04;79.79;100400.72;4968802;28;19937;-66
2023/01/15 01:21:29;;;;;;;;;;;;;;;-3.05;79.77;100412.41;4950061;28;20317;-66
2023/01/15 01:23:56;;;;;;;;;;;;;;;-3.03;79.86;100405.06;4964868;28;19936;-66
2023/01/15 01:26:22;;;;;;;;;;;;;;;-3.04;79.60;100414.09;4965524;28;19930;-66
2023/01/15 01:28:49;;;;;;;;;;;;;;;-3.05;79.72;100419.59;4964901;28;19937;-66
2023/01/15 01:31:16;;;;;;;;;;;;;;;-3.05;79.90;100401.72;4976153;28;19930;-69
2023/01/15 01:33:42;;;;;;;;;;;;;;;-3.01;79.65;100392.34;4961617;28;20769;-65
2023/01/15 01:36:08;;;;;;;;;;;;;;;-2.97;79.89;100390.16;4966734;28;19931;-62
2023/01/15 01:38:34;;;;;;;;;;;;;;;-3.01;79.84;100392.34;4962854;28;19929;-61
2023/01/15 01:41:00;;;;;;;;;;;;;;;-3.00;79.79;100401.22;4981854;28;20377;-63
2023/01/15 01:43:27;;;;;;;;;;;;;;;-3.01;79.96;100413.75;4964120;28;20021;-61
2023/01/15 01:45:53;;;;;;;;;;;;;;;-3.04;79.58;100383.84;4966073;28;20360;-66
2023/01/15 01:48:25;;;;;;;;;;;;;;;-3.04;79.61;100394.53;4967049;28;19930;-65
2023/01/15 01:50:53;;;;;;;;;;;;;;;-3.08;79.86;100382.47;4966652;28;19929;-65
2023/01/15 01:53:21;;;;;;;;;;;;;;;-3.02;79.83;100401.38;4980788;28;19930;-65
2023/01/15 01:55:48;;;;;;;;;;;;;;;-3.03;79.75;100398.88;4981356;28;19930;-66
2023/01/15 01:58:16;;;;;;;;;;;;;;;-2.97;79.92;100397.34;4964213;28;19930;-66
2023/01/15 02:00:44;;;;;;;;;;;;;;;-2.94;79.73;100389.00;4979244;28;19945;-66
2023/01/15 02:03:10;;;;;;;;;;;;;;;-2.91;79.58;100399.34;4963387;28;19930;-62
2023/01/15 02:05:39;;;;;;;;;;;;;;;-2.94;79.40;100400.50;4963853;28;20650;-61
2023/01/15 02:08:05;;;;;;;;;;;;;;;-2.96;79.39;100382.97;4965284;28;19958;-66
2023/01/15 02:10:32;;;;;;;;;;;;;;;-2.94;79.64;100387.13;4963760;28;19938;-63
2023/01/15 02:13:00;;;;;;;;;;;;;;;-2.89;79.47;100389.28;4965855;28;19990;-61
2023/01/15 02:15:31;;;;;;;;;;;;;;;-2.88;79.39;100399.84;4979307;28;19930;-63
2023/01/15 02:18:01;;;;;;;;;;;;;;;-2.88;79.19;100389.13;4946435;28;19941;-65
2023/01/15 02:20:30;;;;;;;;;;;;;;;-2.93;79.34;100385.31;4964712;28;19930;-63
2023/01/15 02:23:06;;;;;;;;;;;;;;;-2.92;79.36;100387.78;4962846;28;19930;-62
2023/01/15 02:25:40;;;;;;;;;;;;;;;-2.93;79.49;100379.94;4963451;28;20032;-63
2023/01/15 02:28:12;;;;;;;;;;;;;;;-2.96;79.25;100374.94;4961701;28;19965;-63
2023/01/15 02:30:41;;;;;;;;;;;;;;;-2.99;79.80;100378.78;4966770;28;19930;-62
2023/01/15 02:33:09;;;;;;;;;;;;;;;-2.94;79.77;100368.41;4961474;28;19930;-63
2023/01/15 02:35:37;;;;;;;;;;;;;;;-2.93;79.49;100367.38;4963933;28;20033;-62
2023/01/15 02:38:05;;;;;;;;;;;;;;;-2.95;79.40;100388.13;4962631;28;19976;-62
2023/01/15 02:40:31;;;;;;;;;;;;;;;-2.93;79.49;100391.47;4963474;28;20048;-63
2023/01/15 02:42:58;;;;;;;;;;;;;;;-2.91;79.49;100372.59;4963236;28;19941;-63
2023/01/15 02:45:29;;;;;;;;;;;;;;;-2.89;79.52;100376.78;4977085;28;19934;-63
2023/01/15 02:48:01;;;;;;;;;;;;;;;-2.84;79.48;100392.28;4960717;28;19930;-63
2023/01/15 02:50:31;;;;;;;;;;;;;;;-2.85;79.11;100390.63;4964346;28;20024;-61
2023/01/15 02:52:58;;;;;;;;;;;;;;;-2.86;79.14;100379.09;4962499;28;19937;-63
2023/01/15 02:55:29;;;;;;;;;;;;;;;-2.89;79.07;100390.16;4960040;28;20441;-62
2023/01/15 02:57:57;;;;;;;;;;;;;;;-2.89;79.13;100378.59;4962193;28;19930;-61
2023/01/15 03:00:25;;;;;;;;;;;;;;;-2.91;79.41;100380.59;4964552;28;19930;-62
2023/01/15 03:02:55;;;;;;;;;;;;;;;-2.88;79.42;100375.75;4958001;28;19977;-61
2023/01/15 03:05:23;;;;;;;;;;;;;;;-2.86;79.28;100379.09;4963322;28;19930;-62
2023/01/15 03:07:51;;;;;;;;;;;;;;;-2.86;79.48;100384.44;4961090;28;19930;-63
2023/01/15 03:10:18;;;;;;;;;;;;;;;-2.83;79.17;100382.44;4961940;28;19934;-63
2023/01/15 03:13:04;;;;;;;;;;;;;;;-2.80;79.28;100393.63;4963361;28;19934;-63
2023/01/15 03:18:43;;;;;;;;;;;;;;;-2.85;79.23;100385.25;4967350;28;20910;-62
2023/01/15 03:21:12;;;;;;;;;;;;;;;-2.81;79.22;100380.41;4962820;28;19974;-61
2023/01/15 03:23:40;;;;;;;;;;;;;;;-2.83;79.09;100387.78;4947822;28;19941;-62
2023/01/15 03:26:08;;;;;;;;;;;;;;;-2.80;79.31;100392.78;4966369;28;20005;-62
2023/01/15 03:28:39;;;;;;;;;;;;;;;-2.82;79.26;100394.81;4966862;28;19930;-63
2023/01/15 03:31:05;;;;;;;;;;;;;;;-2.88;79.28;100382.94;4968679;28;19934;-62
2023/01/15 03:33:30;;;;;;;;;;;;;;;-2.91;79.49;100384.09;4983103;28;19930;-61
2023/01/15 03:35:59;;;;;;;;;;;;;;;-2.90;79.50;100399.16;4948674;28;19976;-62
2023/01/15 03:38:38;;;;;;;;;;;;;;;-2.90;79.59;100388.44;4961821;28;19930;-62
2023/01/15 03:41:12;;;;;;;;;;;;;;;-2.89;79.67;100389.28;4964814;28;20389;-62
2023/01/15 03:43:44;;;;;;;;;;;;;;;-2.83;79.56;100393.13;4968209;28;19938;-62
2023/01/15 03:46:15;;;;;;;;;;;;;;;-2.82;79.27;100384.91;4982814;28;19937;-62
2023/01/15 03:48:48;;;;;;;;;;;;;;;-2.80;79.23;100388.28;4964252;28;20393;-61
2023/01/15 03:51:19;;;;;;;;;;;;;;;-2.78;79.34;100402.31;4967164;28;19934;-61
2023/01/15 03:53:47;;;;;;;;;;;;;;;-2.83;79.30;100407.34;4980440;28;20352;-62
2023/01/15 03:56:18;;;;;;;;;;;;;;;-2.81;79.33;100388.44;4949068;28;19934;-61
2023/01/15 03:58:48;;;;;;;;;;;;;;;-2.80;79.32;100404.34;4964976;28;19930;-62
2023/01/15 04:01:21;;;;;;;;;;;;;;;-2.78;79.52;100401.47;4965615;28;19930;-63
2023/01/15 04:03:48;;;;;;;;;;;;;;;-2.79;79.29;100392.63;4978149;28;19956;-61
2023/01/15 04:06:18;;;;;;;;;;;;;;;-2.84;79.21;100403.00;4966857;28;19930;-62
2023/01/15 04:08:45;;;;;;;;;;;;;;;-2.85;79.51;100396.81;4964155;28;19941;-66
2023/01/15 04:11:10;;;;;;;;;;;;;;;-2.79;79.44;100384.59;4965903;28;19930;-61
2023/01/15 04:13:42;;;;;;;;;;;;;;;-2.81;79.20;100383.94;4981206;28;20449;-61
2023/01/15 04:16:23;;;;;;;;;;;;;;;-2.87;79.33;100377.44;4966141;28;19936;-62
2023/01/15 04:18:49;;;;;;;;;;;;;;;-2.89;79.75;100382.13;4966331;28;19954;-62
2023/01/15 04:21:15;;;;;;;;;;;;;;;-2.83;79.88;100403.84;4964527;28;19930;-62
2023/01/15 04:23:42;;;;;;;;;;;;;;;-2.82;79.54;100403.66;4981849;28;19977;-62
2023/01/15 04:26:08;;;;;;;;;;;;;;;-2.79;79.36;100411.38;4967387;28;20226;-62
2023/01/15 04:28:33;;;;;;;;;;;;;;;-2.78;79.31;100406.81;4965289;28;20034;-65
2023/01/15 04:31:00;;;;;;;;;;;;;;;-2.78;79.29;100410.34;4964084;28;19953;-65
2023/01/15 04:33:26;;;;;;;;;;;;;;;-2.82;79.23;100394.81;4968378;28;19936;-60
2023/01/15 04:35:52;;;;;;;;;;;;;;;-2.86;79.33;100395.16;4968060;28;19931;-61
2023/01/15 04:38:18;;;;;;;;;;;;;;;-2.91;79.64;100404.69;4965131;28;19965;-60
2023/01/15 04:46:14;;;;;;;;;;;;;;;-2.90;79.69;100395.66;4966282;28;19930;-62
2023/01/15 04:48:39;;;;;;;;;;;;;;;-2.86;79.88;100394.31;4964713;28;20444;-62
2023/01/15 04:51:06;;;;;;;;;;;;;;;-2.83;79.79;100393.13;4967950;28;19934;-61
2023/01/15 04:53:31;;;;;;;;;;;;;;;-2.82;79.78;100397.47;4967244;28;20016;-62
2023/01/15 04:56:01;;;;;;;;;;;;;;;-2.78;79.76;100391.63;4966246;28;20377;-62
2023/01/15 04:58:27;;;;;;;;;;;;;;;-2.82;79.42;100390.25;4964803;28;19930;-62
2023/01/15 05:00:52;;;;;;;;;;;;;;;-2.83;79.69;100385.09;4967082;28;19930;-63
2023/01/15 05:03:18;;;;;;;;;;;;;;;-2.78;79.70;100388.09;4964655;28;19968;-63
2023/01/15 05:05:44;;;;;;;;;;;;;;;-2.76;79.45;100394.09;4964868;28;19930;-62
2023/01/15 05:08:10;;;;;;;;;;;;;;;-2.78;79.58;100388.94;4963907;28;19936;-61
2023/01/15 05:10:35;;;;;;;;;;;;;;;-2.78;79.53;100383.59;4965301;28;19937;-62
2023/01/15 05:13:03;;;;;;;;;;;;;;;-2.80;79.58;100390.09;4964115;28;20364;-61
2023/01/15 05:15:29;;;;;;;;;;;;;;;-2.86;79.83;100389.78;4960942;28;20006;-61
2023/01/15 05:17:55;;;;;;;;;;;;;;;-2.87;79.94;100380.09;4965865;28;19965;-63
2023/01/15 05:20:21;;;;;;;;;;;;;;;-2.83;80.05;100385.09;4967268;28;19937;-60
2023/01/15 05:22:46;;;;;;;;;;;;;;;-2.85;80.08;100375.41;4964398;28;19930;-61
2023/01/15 05:25:12;;;;;;;;;;;;;;;-2.89;80.14;100378.59;4964183;28;19934;-62
2023/01/15 05:27:38;;;;;;;;;;;;;;;-2.90;80.57;100380.41;4964986;28;19930;-62
2023/01/15 05:30:06;;;;;;;;;;;;;;;-2.94;80.35;100383.63;4964816;28;19930;-62
2023/01/15 05:32:32;;;;;;;;;;;;;;;-3.00;81.10;100366.41;4979023;28;19930;-60
2023/01/15 05:34:58;;;;;;;;;;;;;;;-3.01;81.63;100389.66;4962518;28;19934;-63
2023/01/15 05:37:24;;;;;;;;;;;;;;;-3.00;81.86;100379.81;4963260;28;20394;-66
2023/01/15 05:39:49;;;;;;;;;;;;;;;-3.00;82.27;100385.97;4962644;28;20524;-62
2023/01/15 05:42:15;;;;;;;;;;;;;;;-3.00;82.36;100374.44;4963890;28;19952;-63
2023/01/15 05:44:41;;;;;;;;;;;;;;;-3.00;82.67;100374.44;4962516;28;19930;-60
2023/01/15 05:47:08;;;;;;;;;;;;;;;-3.03;82.86;100382.81;4963250;28;20501;-64
2023/01/15 05:49:34;;;;;;;;;;;;;;;-3.08;83.21;100385.16;4965879;28;19934;-66
2023/01/15 05:52:00;;;;;;;;;;;;;;;-3.10;83.33;100376.47;4963208;28;19930;-61
2023/01/15 05:54:27;;;;;;;;;;;;;;;-3.09;83.52;100378.13;4977208;28;19939;-62
2023/01/15 05:56:53;;;;;;;;;;;;;;;-3.09;83.52;100378.13;4980555;28;19936;-60
2023/01/15 05:59:19;;;;;;;;;;;;;;;-3.09;83.36;100372.78;4978832;28;19930;-62
2023/01/15 06:01:45;;;;;;;;;;;;;;;-3.15;83.38;100369.78;4965471;28;19934;-64
2023/01/15 06:04:13;;;;;;;;;;;;;;;-3.12;83.46;100379.34;4961272;28;20350;-62
2023/01/15 06:06:39;;;;;;;;;;;;;;;-3.11;83.48;100383.69;4964593;28;19953;-61
2023/01/15 06:09:05;;;;;;;;;;;;;;;-3.08;83.44;100375.31;4964346;28;20460;-61
2023/01/15 06:11:31;;;;;;;;;;;;;;;-3.02;83.08;100376.47;4963185;28;19930;-62
2023/01/15 06:13:57;;;;;;;;;;;;;;;-3.07;82.72;100366.28;4964214;28;19930;-62
2023/01/15 06:16:23;;;;;;;;;;;;;;;-3.08;82.78;100380.66;4965168;28;20458;-61
2023/01/15 06:18:49;;;;;;;;;;;;;;;-3.06;82.75;100392.03;4967055;28;20309;-62
2023/01/15 06:21:16;;;;;;;;;;;;;;;-2.96;82.59;100380.31;4967223;28;19930;-65
2023/01/15 06:23:42;;;;;;;;;;;;;;;-2.99;82.09;100368.91;4969507;28;19929;-66
2023/01/15 06:26:10;;;;;;;;;;;;;;;-2.97;82.29;100373.25;4965416;28;19930;-65
2023/01/15 06:28:36;;;;;;;;;;;;;;;-2.96;82.07;100366.91;4976043;28;19961;-66
2023/01/15 06:31:03;;;;;;;;;;;;;;;-2.98;81.88;100377.78;4968100;28;19930;-65
2023/01/15 06:33:29;;;;;;;;;;;;;;;-2.98;81.66;100364.41;4971851;28;19929;-66
2023/01/15 06:35:54;;;;;;;;;;;;;;;-3.01;81.73;100373.59;4968764;28;19964;-60
2023/01/15 06:38:22;;;;;;;;;;;;;;;-2.96;81.95;100380.31;4983637;28;19930;-66
2023/01/15 06:40:48;;;;;;;;;;;;;;;-2.91;81.46;100383.28;4964359;28;19937;-65
2023/01/15 06:47:19;;;;;;;;;;;;;;;-2.83;81.32;100395.81;4971710;28;19956;-66
2023/01/15 06:48:50;;;;;;;;;;;;;;;-2.79;80.88;100395.31;4974916;28;20000;-61
2023/01/15 06:51:19;;;;;;;;;;;;;;;-2.79;80.83;100421.22;4973340;28;19941;-66
2023/01/15 06:53:47;;;;;;;;;;;;;;;-2.82;80.71;100408.19;4960272;28;19930;-66
2023/01/15 06:56:14;;;;;;;;;;;;;;;-2.80;80.50;100408.84;4963744;28;19930;-66
2023/01/15 06:58:40;;;;;;;;;;;;;;;-2.78;80.28;100396.13;4964453;28;20075;-62
2023/01/15 07:01:07;;;;;;;;;;;;;;;-2.77;79.96;100406.66;4963872;28;19930;-61
2023/01/15 07:03:33;;;;;;;;;;;;;;;-2.75;80.09;100393.94;4960995;28;19972;-62
2023/01/15 07:05:59;;;;;;;;;;;;;;;-2.74;79.93;100394.75;4961710;28;19969;-61
2023/01/15 07:08:26;;;;;;;;;;;;;;;-2.71;80.01;100397.94;4962238;28;20018;-62
2023/01/15 07:14:53;;;;;;;;;;;;;;;-2.78;79.30;100405.00;3933525;28;10000494;-62
2023/01/15 07:17:19;;;;;;;;;;;;;;;-2.80;79.77;100390.97;4957459;28;20028;-62
2023/01/15 07:19:45;;;;;;;;;;;;;;;-2.79;79.48;100391.78;4960854;28;20369;-61
2023/01/15 07:22:11;;;;;;;;;;;;;;;-2.83;79.79;100399.31;4967695;28;19938;-61
2023/01/15 07:24:36;;;;;;;;;;;;;;;-2.82;79.66;100418.91;4971660;28;19930;-62
2023/01/15 07:27:02;;;;;;;;;;;;;;;-2.85;79.62;100398.66;4968234;28;20609;-60
2023/01/15 07:29:28;;;;;;;;;;;;;;;-2.83;79.70;100387.78;4963118;28;19930;-60
2023/01/15 07:31:55;;;;;;;;;;;;;;;-2.88;79.63;100391.81;4962551;28;19934;-60
2023/01/15 07:34:21;;;;;;;;;;;;;;;-2.81;79.55;100405.34;4959979;28;20449;-62
2023/01/15 07:36:47;;;;;;;;;;;;;;;-2.79;79.40;100402.47;4960105;28;19997;-60
2023/01/15 07:39:13;;;;;;;;;;;;;;;-2.81;79.33;100385.75;4969996;28;19960;-60
2023/01/15 07:49:59;;;;;;;;;;;;;;;-2.69;79.09;100388.88;4978235;28;20325;-61
2023/01/15 07:52:24;;;;;;;;;;;;;;;-2.77;79.08;100374.53;4967273;28;19930;-62
2023/01/15 07:54:50;;;;;;;;;;;;;;;-2.64;78.50;100397.25;4968992;28;20160;-61
2023/01/15 07:57:17;;;;;;;;;;;;;;;-2.61;78.43;100392.38;4970027;28;19930;-62
2023/01/15 07:59:43;;;;;;;;;;;;;;;-2.61;78.28;100389.69;4973144;28;20516;-61
2023/01/15 08:02:09;;;;;;;;;;;;;;;-2.59;78.21;100390.34;4969801;28;20332;-66
2023/01/15 08:04:36;;;;;;;;;;;;;;;-2.62;78.08;100384.53;4986246;28;20365;-66
2023/01/15 08:07:03;;;;;;;;;;;;;;;-2.59;77.99;100402.91;4967487;28;19930;-66
2023/01/15 08:09:29;;;;;;;;;;;;;;;-2.56;77.86;100389.19;4969218;28;19953;-61
2023/01/15 08:17:25;;;;;;;;;;;;;;;-2.58;77.80;100375.13;4966147;28;20045;-61
2023/01/15 08:19:52;;;;;;;;;;;;;;;-2.61;77.81;100395.06;4972847;28;20155;-61
2023/01/15 08:22:18;;;;;;;;;;;;;;;-2.61;77.84;100381.66;4972107;28;20354;-62
2023/01/15 08:24:44;;;;;;;;;;;;;;;-2.58;77.85;100375.13;4968577;28;20313;-65
2023/01/15 08:27:10;;;;;;;;;;;;;;;-2.51;77.77;100368.06;4951019;28;20424;-66
2023/01/15 08:29:36;;;;;;;;;;;;;;;-2.47;77.67;100377.44;4971974;28;19976;-65
2023/01/15 08:32:02;;;;;;;;;;;;;;;-2.43;77.18;100397.50;4967232;28;19941;-65
2023/01/15 08:34:28;;;;;;;;;;;;;;;-2.47;77.19;100377.44;4973154;28;19930;-65
2023/01/15 08:36:58;;;;;;;;;;;;;;;-2.42;77.12;100388.44;4970780;28;19934;-65
2023/01/15 08:39:25;;;;;;;;;;;;;;;-2.43;77.22;100378.75;4967913;28;19930;-65
2023/01/15 08:41:50;;;;;;;;;;;;;;;-2.40;77.08;100393.63;4975154;28;20029;-65
2023/01/15 08:44:16;;;;;;;;;;;;;;;-2.43;76.89;100377.91;4968186;28;20375;-67
2023/01/15 08:46:42;;;;;;;;;;;;;;;-2.43;77.16;100375.22;4984490;28;19929;-65
2023/01/15 08:49:09;;;;;;;;;;;;;;;-2.35;77.32;100387.72;4973799;28;19930;-65
2023/01/15 08:51:35;;;;;;;;;;;;;;;-2.32;76.56;100376.69;4965906;28;19934;-66
2023/01/15 08:54:02;;;;;;;;;;;;;;;-2.33;76.84;100375.84;4972715;28;19930;-65
2023/01/15 08:56:28;;;;;;;;;;;;;;;-2.30;76.69;100396.09;4973802;28;19934;-65
2023/01/15 08:58:54;;;;;;;;;;;;;;;-2.35;76.44;100385.91;4972991;28;19941;-61
2023/01/15 09:01:19;;;;;;;;;;;;;;;-2.46;76.67;100371.06;4973049;28;19995;-59
2023/01/15 09:03:45;;;;;;;;;;;;;;;-2.45;76.94;100372.72;4991409;28;19936;-61
2023/01/15 09:06:12;;;;;;;;;;;;;;;-2.38;76.85;100377.38;4974136;28;19930;-62
2023/01/15 09:08:38;;;;;;;;;;;;;;;-2.33;76.68;100372.34;4977169;28;19936;-62
2023/01/15 09:11:08;;;;;;;;;;;;;;;-2.31;76.81;100370.31;4972900;28;19934;-61
2023/01/15 09:13:35;;;;;;;;;;;;;;;-2.29;76.43;100379.84;4972788;28;20401;-60
2023/01/15 09:16:02;;;;;;;;;;;;;;;-2.32;76.41;100387.41;4974519;28;19930;-60
2023/01/15 09:18:28;;;;;;;;;;;;;;;-2.34;76.46;100376.00;4969562;28;20397;-61
2023/01/15 09:20:53;;;;;;;;;;;;;;;-2.36;76.65;100372.66;4972460;28;19988;-61
2023/01/15 09:23:19;;;;;;;;;;;;;;;-2.35;76.55;100367.16;4974570;28;19929;-65
2023/01/15 09:25:54;;;;;;;;;;;;;;;-2.33;76.66;100365.13;4972495;28;19929;-66
2023/01/15 09:28:21;;;;;;;;;;;;;;;-2.30;76.56;100378.16;4966801;28;19930;-61
2023/01/15 09:30:47;;;;;;;;;;;;;;;-2.38;76.20;100356.78;4968776;28;20024;-61
2023/01/15 09:33:13;;;;;;;;;;;;;;;-2.36;76.62;100361.97;4969479;28;20045;-63
2023/01/15 09:35:39;;;;;;;;;;;;;;;-2.30;76.50;100355.91;4971000;28;19929;-62
2023/01/15 09:38:05;;;;;;;;;;;;;;;-2.24;76.60;100347.16;4970029;28;19930;-67
2023/01/15 09:40:39;;;;;;;;;;;;;;;-2.18;76.09;100365.22;4971558;28;19936;-62
2023/01/15 09:43:07;;;;;;;;;;;;;;;-2.19;75.88;100360.03;4967919;28;19976;-61
2023/01/15 09:45:38;;;;;;;;;;;;;;;-2.24;75.76;100359.72;4986601;28;19933;-61
2023/01/15 09:48:19;;;;;;;;;;;;;;;-2.27;75.91;100347.50;4977716;28;20013;-61
2023/01/15 09:50:52;;;;;;;;;;;;;;;-2.25;75.95;100350.84;4975094;28;20304;-62
2023/01/15 09:53:29;;;;;;;;;;;;;;;-2.23;75.80;100342.66;4969995;28;19930;-65
2023/01/15 09:55:56;;;;;;;;;;;;;;;-2.24;75.76;100340.97;4970560;28;20400;-65
2023/01/15 09:58:29;;;;;;;;;;;;;;;-2.22;75.41;100334.41;4973606;28;20028;-65
2023/01/15 10:00:57;;;;;;;;;;;;;;;-2.12;75.55;100346.75;4972011;28;19984;-65
2023/01/15 10:03:30;;;;;;;;;;;;;;;-2.06;75.42;100351.41;4973012;28;19930;-65
2023/01/15 10:06:00;;;;;;;;;;;;;;;-2.18;74.84;100332.22;4970476;28;19937;-65
2023/01/15 10:08:28;;;;;;;;;;;;;;;-2.17;75.22;100341.91;4970188;28;19934;-65
2023/01/15 10:10:55;;;;;;;;;;;;;;;-2.17;75.15;100340.09;4970864;28;20037;-65
2023/01/15 10:13:26;;;;;;;;;;;;;;;-2.17;75.15;100348.13;4969738;28;20025;-65
2023/01/15 10:15:52;;;;;;;;;;;;;;;-2.16;75.12;100335.56;4974220;28;19936;-65
2023/01/15 10:18:23;;;;;;;;;;;;;;;-2.08;75.08;100342.69;4970678;28;19930;-65
2023/01/15 10:21:07;;;;;;;;;;;;;;;-2.07;74.34;100353.25;4971888;28;19942;-66
2023/01/15 10:23:38;;;;;;;;;;;;;;;-2.09;74.56;100344.56;4964932;28;19930;-66
2023/01/15 10:26:15;;;;;;;;;;;;;;;-2.13;74.58;100348.59;4979684;28;19989;-65
2023/01/15 10:28:49;;;;;;;;;;;;;;;-2.14;74.97;100347.78;4963504;28;19952;-65
2023/01/15 10:31:18;;;;;;;;;;;;;;;-2.07;74.79;100349.72;4967250;28;19930;-65
2023/01/15 10:33:53;;;;;;;;;;;;;;;-2.03;74.45;100346.53;4966473;28;19985;-65
2023/01/15 10:36:21;;;;;;;;;;;;;;;-2.02;74.36;100334.78;4962072;28;19984;-65
2023/01/15 10:38:52;;;;;;;;;;;;;;;-2.00;74.36;100326.56;4958895;28;20024;-65
2023/01/15 10:41:28;;;;;;;;;;;;;;;-2.01;74.12;100338.31;4963847;28;19930;-65
2023/01/15 10:43:58;;;;;;;;;;;;;;;-2.01;74.09;100330.28;4962394;28;19930;-65
2023/01/15 10:46:26;;;;;;;;;;;;;;;-2.01;74.35;100331.09;4966317;28;19934;-65
2023/01/15 10:48:55;;;;;;;;;;;;;;;-2.03;74.28;100341.16;4965739;28;19938;-65
2023/01/15 10:51:22;;;;;;;;;;;;;;;-2.02;73.94;100333.97;4966229;28;19973;-65
2023/01/15 10:53:50;;;;;;;;;;;;;;;-1.98;73.79;100334.41;4966803;28;19930;-65
2023/01/15 10:56:21;;;;;;;;;;;;;;;-1.96;74.09;100343.13;4966692;28;19934;-65
2023/01/15 10:58:51;;;;;;;;;;;;;;;-1.89;74.21;100333.34;4964354;28;19930;-65
2023/01/15 11:01:20;;;;;;;;;;;;;;;-1.88;73.80;100322.44;4967101;28;19993;-65
2023/01/15 11:03:46;;;;;;;;;;;;;;;-1.88;73.68;100321.63;4968823;28;20329;-66
2023/01/15 11:06:15;;;;;;;;;;;;;;;-1.92;73.86;100317.63;4967688;28;19934;-65
2023/01/15 11:08:42;;;;;;;;;;;;;;;-1.90;73.48;100305.69;4964363;28;19930;-61
2023/01/15 11:11:15;;;;;;;;;;;;;;;-1.94;73.80;100314.31;4946908;28;19968;-61
2023/01/15 11:19:36;;;;;;;;;;;;;;;-1.94;73.25;100319.66;4963031;28;19929;-65
2023/01/15 11:22:08;;;;;;;;;;;;;;;-2.00;73.58;100305.13;4966519;28;19930;-65
2023/01/15 11:24:36;;;;;;;;;;;;;;;-1.97;73.45;100296.72;4962791;28;20446;-65
2023/01/15 11:27:02;;;;;;;;;;;;;;;-1.95;73.37;100292.00;4965052;28;20402;-65
2023/01/15 11:29:30;;;;;;;;;;;;;;;-1.94;73.56;100290.19;4967895;28;19936;-60
2023/01/15 11:31:56;;;;;;;;;;;;;;;-1.93;73.54;100294.53;4619074;28;9999888;-61
2023/01/15 11:34:23;;;;;;;;;;;;;;;-1.93;73.47;100281.13;4975676;28;20499;-62
2023/01/15 11:36:59;;;;;;;;;;;;;;;-1.93;73.35;100298.03;4976107;28;19977;-65
2023/01/15 11:39:29;;;;;;;;;;;;;;;-1.91;73.27;100282.59;4975875;28;19937;-65
2023/01/15 11:53:21;;;;;;;;;;;;;;;-1.92;73.21;100282.78;4929096;29;19987;-60
2023/01/15 11:55:53;;;;;;;;;;;;;;;-1.97;73.51;100274.44;4929906;29;20053;-60
2023/01/15 11:58:19;;;;;;;;;;;;;;;-1.99;73.71;100261.22;4927473;29;20396;-62
2023/01/15 12:00:48;;;;;;;;;;;;;;;-1.97;73.82;100261.88;4929032;29;20026;-65
2023/01/15 12:03:16;;;;;;;;;;;;;;;-2.02;73.39;100267.78;4912132;29;20255;-65
2023/01/15 12:05:45;;;;;;;;;;;;;;;-2.05;73.65;100264.63;4928258;29;20350;-61
2023/01/15 12:08:14;;;;;;;;;;;;;;;-2.02;73.62;100261.59;4927065;29;19970;-62
2023/01/15 12:13:35;;;;;;;;;;;;;;;-2.07;73.64;100269.31;4938772;28;20005;-65
2023/01/15 12:16:06;;;;;;;;;;;;;;;-2.09;73.90;100268.69;4933304;29;19930;-62
2023/01/15 12:18:49;;;;;;;;;;;;;;;-2.08;73.83;100259.63;4929655;29;20022;-60
2023/01/15 12:21:22;;;;;;;;;;;;;;;-2.05;73.63;100270.81;4928491;29;19953;-62
2023/01/15 12:24:00;;;;;;;;;;;;;;;-2.01;73.39;100271.31;4912195;29;20033;-61
2023/01/15 12:26:27;;;;;;;;;;;;;;;-2.04;73.34;100255.56;4932582;28;20064;-61
2023/01/15 12:29:05;;;;;;;;;;;;;;;-2.00;73.75;100265.75;4972438;28;19934;-61
2023/01/15 12:31:35;;;;;;;;;;;;;;;-1.93;73.06;100265.84;4968753;28;19961;-61
2023/01/15 12:34:05;;;;;;;;;;;;;;;-1.92;73.24;100264.84;4969042;28;19934;-62
2023/01/15 12:36:36;;;;;;;;;;;;;;;-1.87;72.68;100266.97;4969698;28;19930;-61
2023/01/15 12:39:03;;;;;;;;;;;;;;;-1.97;72.64;100271.75;4963202;28;20448;-60
2023/01/15 12:44:59;;;;;;;;;;;;;;;-2.05;73.00;100276.19;4981605;28;20309;-61
2023/01/15 12:47:09;;;;;;;;;;;;;;;-2.07;73.06;100270.16;4964854;28;19930;-61
2023/01/15 12:49:39;;;;;;;;;;;;;;;-2.10;73.07;100270.53;4982084;28;20321;-61
2023/01/15 12:52:09;;;;;;;;;;;;;;;-2.11;73.34;100265.34;4965137;28;19977;-61
2023/01/15 12:54:38;;;;;;;;;;;;;;;-2.10;73.37;100275.06;4949594;28;20440;-60
2023/01/15 12:57:08;;;;;;;;;;;;;;;-2.07;73.39;100272.84;4967405;28;19934;-62
2023/01/15 12:59:40;;;;;;;;;;;;;;;-2.03;73.03;100287.56;4966240;28;19937;-65
2023/01/15 13:02:12;;;;;;;;;;;;;;;-2.08;72.92;100289.09;4968528;28;20425;-63
2023/01/15 13:04:41;;;;;;;;;;;;;;;-2.15;73.10;100297.03;4934764;28;19937;-60
2023/01/15 13:07:10;;;;;;;;;;;;;;;-2.18;73.23;100286.66;4969023;28;19936;-61
2023/01/15 13:09:40;;;;;;;;;;;;;;;-2.17;73.14;100310.63;4968506;28;20693;-61
2023/01/15 13:12:10;;;;;;;;;;;;;;;-2.16;73.09;100325.69;4963562;28;19930;-62
2023/01/15 13:14:38;;;;;;;;;;;;;;;-2.20;72.81;100302.91;4968162;28;20610;-63
2023/01/15 13:17:10;;;;;;;;;;;;;;;-2.23;72.97;100299.78;4966703;28;20357;-61
2023/01/15 13:19:40;;;;;;;;;;;;;;;-2.28;73.30;100295.75;4969153;28;19938;-63
2023/01/15 13:22:10;;;;;;;;;;;;;;;-2.27;73.03;100301.97;4985672;28;20488;-65
2023/01/15 13:24:57;;;;;;;;;;;;;;;-2.26;73.18;100308.16;4981000;28;19933;-65
2023/01/15 13:27:29;;;;;;;;;;;;;;;-2.28;72.87;100302.97;4941738;28;20424;-65
2023/01/15 13:30:06;;;;;;;;;;;;;;;-2.30;73.17;100303.16;4963727;28;19984;-65
2023/01/15 13:32:42;;;;;;;;;;;;;;;-2.30;72.97;100302.34;4965621;28;20337;-65
2023/01/15 13:35:13;;;;;;;;;;;;;;;-2.28;73.08;100317.19;4965651;28;19945;-65